createdAt,value
2022-12-25T00:01:33.514Z,21.68
2022-12-25T00:04:01.255Z,21.69
2022-12-25T00:06:30.366Z,21.68
2022-12-25T00:09:00.287Z,21.66
2022-12-25T00:11:27.980Z,21.67
2022-12-25T00:13:55.655Z,21.66
2022-12-25T00:16:23.711Z,21.66
2022-12-25T00:18:51.917Z,21.65
2022-12-25T00:21:19.630Z,21.64
2022-12-25T00:23:48.883Z,21.65
2022-12-25T00:26:16.899Z,21.64
2022-12-25T00:28:45.755Z,21.64
2022-12-25T00:31:13.720Z,21.64
2022-12-25T00:33:41.986Z,21.64
2022-12-25T00:36:10.031Z,21.64
2022-12-25T00:49:46.239Z,21.63
2022-12-25T00:52:15.400Z,21.65
2022-12-25T00:58:15.485Z,21.65
2022-12-25T01:00:43.153Z,21.66
2022-12-25T01:03:10.983Z,21.67
2022-12-25T01:05:38.629Z,21.67
2022-12-25T01:21:47.010Z,21.62
2022-12-25T01:32:15.580Z,21.60
2022-12-25T01:34:45.601Z,21.60
2022-12-25T01:37:15.842Z,21.60
2022-12-25T02:01:07.411Z,21.59
2022-12-25T02:03:36.960Z,21.62
2022-12-25T02:06:04.970Z,21.62
2022-12-25T02:08:42.028Z,21.63
2022-12-25T02:11:29.967Z,21.63
2022-12-25T02:13:57.613Z,21.63
2022-12-25T02:16:25.360Z,21.64
2022-12-25T02:18:55.102Z,21.64
2022-12-25T02:21:30.758Z,21.63
2022-12-25T02:59:44.270Z,21.57
2022-12-25T03:02:45.629Z,21.57
2022-12-25T03:05:31.358Z,21.56
2022-12-25T03:07:59.285Z,21.56
2022-12-25T03:10:44.482Z,21.57
2022-12-25T03:13:13.116Z,21.59
2022-12-25T03:15:58.317Z,21.59
2022-12-25T03:18:27.941Z,21.61
2022-12-25T03:21:13.256Z,21.61
2022-12-25T03:31:01.754Z,21.61
2022-12-25T03:33:47.418Z,21.61
2022-12-25T03:36:15.608Z,21.58
2022-12-25T03:39:02.322Z,21.59
2022-12-25T03:41:48.955Z,21.57
2022-12-25T03:44:35.429Z,21.56
2022-12-25T03:47:23.075Z,21.57
2022-12-25T03:50:10.125Z,21.56
2022-12-25T03:52:55.148Z,21.54
2022-12-25T03:59:30.817Z,21.55
2022-12-25T04:02:15.968Z,21.55
2022-12-25T04:05:01.435Z,21.53
2022-12-25T04:07:48.198Z,21.54
2022-12-25T04:17:37.661Z,21.54
2022-12-25T04:20:23.432Z,21.53
2022-12-25T04:23:10.158Z,21.54
2022-12-25T04:39:47.338Z,21.58
2022-12-25T04:42:14.959Z,21.59
2022-12-25T04:44:42.543Z,21.57
2022-12-25T04:47:11.623Z,21.55
2022-12-25T04:49:39.551Z,21.54
2022-12-25T04:52:07.250Z,21.54
2022-12-25T05:22:53.472Z,21.51
2022-12-25T05:25:21.113Z,21.51
2022-12-25T05:27:53.756Z,21.50
2022-12-25T05:30:21.794Z,21.50
2022-12-25T05:32:49.428Z,21.51
2022-12-25T05:35:17.209Z,21.53
2022-12-25T05:37:44.882Z,21.53
2022-12-25T05:50:49.987Z,21.58
2022-12-25T05:53:17.673Z,21.57
2022-12-25T05:56:04.148Z,21.56
2022-12-25T05:58:31.854Z,21.55
2022-12-25T06:00:59.671Z,21.53
2022-12-25T06:03:27.446Z,21.54
2022-12-25T06:05:56.612Z,21.53
2022-12-25T06:08:24.201Z,21.54
2022-12-25T06:15:01.774Z,21.55
2022-12-25T06:17:29.580Z,21.54
2022-12-25T06:19:57.288Z,21.56
2022-12-25T06:22:29.522Z,21.56
2022-12-25T06:25:44.419Z,21.57
2022-12-25T06:28:12.081Z,21.58
2022-12-25T06:30:39.821Z,21.57
2022-12-25T06:33:07.448Z,21.57
2022-12-25T06:35:35.092Z,21.58
2022-12-25T06:38:04.221Z,21.57
2022-12-25T06:54:47.581Z,21.63
2022-12-25T06:57:15.250Z,21.65
2022-12-25T06:59:42.924Z,21.64
2022-12-25T07:02:11.832Z,21.66
2022-12-25T07:04:39.884Z,21.67
2022-12-25T07:07:09.314Z,21.66
2022-12-25T07:09:39.015Z,21.65
2022-12-25T07:12:08.828Z,21.66
2022-12-25T07:14:36.544Z,21.67
2022-12-25T07:17:04.179Z,21.66
2022-12-25T07:19:31.829Z,21.66
2022-12-25T07:21:59.559Z,21.67
2022-12-25T07:24:27.274Z,21.67
2022-12-25T07:27:42.392Z,21.68
2022-12-25T07:30:12.850Z,21.69
2022-12-25T07:32:43.244Z,21.70
2022-12-25T07:35:13.195Z,21.71
2022-12-25T07:37:40.863Z,21.70
2022-12-25T07:40:09.139Z,21.70
2022-12-25T07:42:36.817Z,21.70
2022-12-25T07:45:04.897Z,21.71
2022-12-25T07:47:33.932Z,21.71
2022-12-25T07:50:01.608Z,21.73
2022-12-25T07:52:29.277Z,21.77
2022-12-25T08:24:07.134Z,21.94
2022-12-25T08:27:31.752Z,21.97
2022-12-25T08:30:02.755Z,21.96
2022-12-25T08:32:30.470Z,21.98
2022-12-25T08:34:58.099Z,21.97
2022-12-25T08:37:26.455Z,21.95
2022-12-25T08:39:54.090Z,21.95
2022-12-25T08:56:51.195Z,21.99
2022-12-25T08:59:19.502Z,22.01
2022-12-25T09:01:47.326Z,22.03
2022-12-25T09:04:15.455Z,22.03
2022-12-25T09:06:43.780Z,22.05
2022-12-25T09:09:11.419Z,22.03
2022-12-25T09:11:39.732Z,22.03
2022-12-25T09:14:09.666Z,22.03
2022-12-25T09:16:37.330Z,22.01
2022-12-25T09:19:05.805Z,22.01
2022-12-25T09:21:33.458Z,22.00
2022-12-25T09:24:01.808Z,22.01
2022-12-25T09:26:58.518Z,22.02
2022-12-25T09:29:29.531Z,22.01
2022-12-25T09:31:57.214Z,22.02
2022-12-25T09:34:25.586Z,22.02
2022-12-25T09:36:53.254Z,22.02
2022-12-25T09:39:21.632Z,22.02
2022-12-25T09:48:46.959Z,22.04
2022-12-25T09:51:15.497Z,22.04
2022-12-25T09:53:44.538Z,22.05
2022-12-25T10:21:00.912Z,22.13
2022-12-25T10:23:29.326Z,22.14
2022-12-25T10:44:35.225Z,22.24
2022-12-25T10:47:03.921Z,22.27
2022-12-25T10:49:32.362Z,22.31
2022-12-25T10:52:00.868Z,22.34
2022-12-25T10:54:29.192Z,22.39
2022-12-25T10:56:57.500Z,22.44
2022-12-25T10:59:25.865Z,22.49
2022-12-25T11:01:55.684Z,22.54
2022-12-25T11:04:26.898Z,22.57
2022-12-25T11:06:58.190Z,22.61
2022-12-25T11:09:26.965Z,22.65
2022-12-25T11:15:35.576Z,22.70
2022-12-25T11:18:05.468Z,22.73
2022-12-25T11:20:33.700Z,22.76
2022-12-25T11:23:01.355Z,22.76
2022-12-25T11:25:30.922Z,22.80
2022-12-25T11:28:07.852Z,22.83
2022-12-25T11:30:36.211Z,22.84
2022-12-25T11:33:05.910Z,22.86
2022-12-25T11:35:33.941Z,22.88
2022-12-25T11:38:02.318Z,22.90
2022-12-25T11:40:30.483Z,22.92
2022-12-25T12:15:07.787Z,23.02
2022-12-25T12:17:36.826Z,22.99
2022-12-25T12:20:12.646Z,22.99
2022-12-25T12:22:40.304Z,22.98
2022-12-25T12:25:09.031Z,22.96
2022-12-25T12:42:45.942Z,22.87
2022-12-25T12:45:18.978Z,22.85
2022-12-25T12:47:47.777Z,22.85
2022-12-25T12:50:31.004Z,22.82
2022-12-25T12:52:59.420Z,22.80
2022-12-25T12:55:31.365Z,22.79
2022-12-25T12:57:59.552Z,22.77
2022-12-25T13:00:30.990Z,22.77
2022-12-25T13:03:16.657Z,22.75
2022-12-25T13:05:48.721Z,22.76
2022-12-25T13:08:25.752Z,22.75
2022-12-25T13:10:54.635Z,22.76
2022-12-25T13:27:25.014Z,22.70
2022-12-25T13:29:52.676Z,22.70
2022-12-25T13:32:22.669Z,22.71
2022-12-25T13:34:50.295Z,22.69
2022-12-25T13:37:19.704Z,22.70
2022-12-25T13:39:48.983Z,22.70
2022-12-25T13:42:57.206Z,22.70
2022-12-25T13:45:26.808Z,22.68
2022-12-25T13:47:56.401Z,22.69
2022-12-25T13:50:26.259Z,22.69
2022-12-25T13:52:54.915Z,22.68
2022-12-25T13:55:22.820Z,22.68
2022-12-25T13:57:51.732Z,22.69
2022-12-25T14:00:21.238Z,22.70
2022-12-25T14:02:50.605Z,22.71
2022-12-25T14:05:25.983Z,22.70
2022-12-25T14:07:54.157Z,22.69
2022-12-25T14:10:22.545Z,22.71
2022-12-25T14:16:13.164Z,22.71
2022-12-25T14:18:50.566Z,22.71
2022-12-25T14:21:23.471Z,22.71
2022-12-25T14:23:51.194Z,22.69
2022-12-25T14:26:21.248Z,22.69
2022-12-25T14:35:54.534Z,22.65
2022-12-25T14:38:24.652Z,22.62
2022-12-25T14:41:00.049Z,22.61
2022-12-25T14:57:38.870Z,22.52
2022-12-25T15:00:09.213Z,22.50
2022-12-25T15:02:39.983Z,22.50
2022-12-25T15:05:09.141Z,22.49
2022-12-25T15:07:36.782Z,22.47
2022-12-25T15:10:57.402Z,22.46
2022-12-25T15:30:40.099Z,22.41
2022-12-25T15:33:08.634Z,22.41
2022-12-25T15:35:38.550Z,22.39
2022-12-25T15:38:06.169Z,22.39
2022-12-25T15:40:34.482Z,22.37
2022-12-25T16:00:54.351Z,22.32
2022-12-25T16:03:22.749Z,22.31
2022-12-25T16:05:50.452Z,22.29
2022-12-25T16:08:18.135Z,22.30
2022-12-25T16:10:46.612Z,22.29
2022-12-25T16:27:24.416Z,22.30
2022-12-25T16:29:53.448Z,22.30
2022-12-25T16:32:21.069Z,22.31
2022-12-25T16:34:49.461Z,22.30
2022-12-25T16:37:17.876Z,22.30
2022-12-25T16:39:45.608Z,22.31
2022-12-25T16:48:50.214Z,22.30
2022-12-25T16:51:18.398Z,22.30
2022-12-25T16:53:47.278Z,22.30
2022-12-25T16:56:16.234Z,22.30
2022-12-25T17:02:17.515Z,22.29
2022-12-25T17:04:49.298Z,22.30
2022-12-25T17:07:16.966Z,22.29
2022-12-25T17:09:46.205Z,22.29
2022-12-25T17:12:13.834Z,22.29
2022-12-25T17:14:45.301Z,22.29
2022-12-25T17:17:12.883Z,22.29
2022-12-25T17:19:43.235Z,22.29
2022-12-25T17:22:12.242Z,22.29
2022-12-25T17:24:42.157Z,22.28
2022-12-25T17:27:10.587Z,22.29
2022-12-25T17:37:26.816Z,22.29
2022-12-25T17:39:55.821Z,22.28
2022-12-25T17:42:24.167Z,22.29
2022-12-25T17:44:51.787Z,22.28
2022-12-25T17:47:20.222Z,22.29
2022-12-25T17:49:47.905Z,22.28
2022-12-25T17:52:16.338Z,22.28
2022-12-25T17:54:44.083Z,22.29
2022-12-25T17:57:14.861Z,22.28
2022-12-25T17:59:42.634Z,22.28
2022-12-25T18:02:11.112Z,22.28
2022-12-25T18:04:38.836Z,22.27
2022-12-25T18:07:07.480Z,22.27
2022-12-25T18:09:36.426Z,22.27
2022-12-25T18:12:08.353Z,22.26
2022-12-25T18:14:37.362Z,22.26
2022-12-25T18:17:06.339Z,22.26
2022-12-25T18:19:34.340Z,22.26
2022-12-25T18:22:02.865Z,22.26
2022-12-25T18:24:30.515Z,22.25
2022-12-25T18:26:59.490Z,22.25
2022-12-25T18:30:32.057Z,22.25
2022-12-25T18:33:02.493Z,22.24
2022-12-25T18:35:30.126Z,22.25
2022-12-25T18:37:59.865Z,22.25
2022-12-25T18:40:27.580Z,22.24
2022-12-25T19:14:48.495Z,22.22
2022-12-25T19:17:17.189Z,22.23
2022-12-25T19:19:44.857Z,22.23
2022-12-25T19:22:12.554Z,22.22
2022-12-25T19:24:40.982Z,22.23
2022-12-25T19:27:11.484Z,22.22
2022-12-25T19:29:40.531Z,22.22
2022-12-25T19:32:09.577Z,22.21
2022-12-25T19:34:37.466Z,22.21
2022-12-25T19:37:05.936Z,22.21
2022-12-25T19:39:33.578Z,22.20
2022-12-25T19:42:01.970Z,22.20
2022-12-25T19:44:48.283Z,22.20
2022-12-25T19:47:18.396Z,22.21
2022-12-25T19:49:49.626Z,22.21
2022-12-25T19:52:21.414Z,22.21
2022-12-25T19:54:51.438Z,22.21
2022-12-25T19:57:19.127Z,22.21
2022-12-25T20:00:25.072Z,22.22
2022-12-25T20:02:54.221Z,22.22
2022-12-25T20:05:22.793Z,22.21
2022-12-25T20:07:50.536Z,22.20
2022-12-25T20:10:19.105Z,22.21
2022-12-25T20:12:46.927Z,22.20
2022-12-25T20:19:27.560Z,22.19
2022-12-25T20:21:56.665Z,22.20
2022-12-25T20:24:24.683Z,22.19
2022-12-25T20:26:59.015Z,22.18
2022-12-25T20:30:26.166Z,22.17
2022-12-25T20:32:58.693Z,22.17
2022-12-25T20:35:26.308Z,22.16
2022-12-25T20:37:56.301Z,22.16
2022-12-25T20:40:24.028Z,22.15
2022-12-25T20:42:51.710Z,22.16
2022-12-25T20:49:33.264Z,22.16
2022-12-25T20:52:05.562Z,22.15
2022-12-25T20:54:34.930Z,22.15
2022-12-25T20:57:04.586Z,22.16
2022-12-25T21:00:09.684Z,22.16
2022-12-25T21:02:41.832Z,22.16
2022-12-25T21:05:12.494Z,22.16
2022-12-25T21:07:41.563Z,22.17
2022-12-25T21:10:11.201Z,22.17
2022-12-25T21:12:38.832Z,22.17
2022-12-25T21:15:25.837Z,22.19
2022-12-25T21:17:54.472Z,22.16
2022-12-25T21:20:22.153Z,22.16
2022-12-25T21:22:49.798Z,22.16
2022-12-25T21:25:20.559Z,22.16
2022-12-25T21:27:49.774Z,22.16
2022-12-25T21:30:22.783Z,22.15
2022-12-25T21:33:07.994Z,22.15
2022-12-25T21:35:37.770Z,22.15
2022-12-25T21:38:05.433Z,22.15
2022-12-25T21:40:36.470Z,22.14
2022-12-25T21:43:04.102Z,22.14
2022-12-25T22:00:01.073Z,22.11
2022-12-25T22:02:30.169Z,22.12
2022-12-25T22:04:57.919Z,22.11
2022-12-25T22:07:26.599Z,22.11
2022-12-25T22:09:54.192Z,22.11
2022-12-25T22:12:40.519Z,22.12
2022-12-25T22:22:04.634Z,22.12
2022-12-25T22:24:32.985Z,22.12
2022-12-25T22:27:06.974Z,22.11
2022-12-25T22:33:18.258Z,22.08
2022-12-25T22:35:47.036Z,22.08
2022-12-25T22:38:16.029Z,22.08
2022-12-25T22:40:44.836Z,22.07
2022-12-25T22:43:12.563Z,22.06
2022-12-25T22:59:51.445Z,22.02
2022-12-25T23:02:19.152Z,22.01
2022-12-25T23:04:47.916Z,22.02
2022-12-25T23:07:15.786Z,22.02
2022-12-25T23:09:43.591Z,22.01
2022-12-25T23:12:32.126Z,22.02
2022-12-25T23:15:00.245Z,22.02
2022-12-25T23:17:46.189Z,22.03
2022-12-25T23:20:32.286Z,22.03
2022-12-25T23:23:17.632Z,22.04
2022-12-25T23:26:08.431Z,22.03
2022-12-25T23:28:53.680Z,22.04
2022-12-25T23:34:54.098Z,22.04
2022-12-25T23:37:22.077Z,22.04
2022-12-25T23:39:50.400Z,22.02
2022-12-25T23:42:18.275Z,22.01
2022-12-25T23:48:17.683Z,22.00
2022-12-25T23:50:46.709Z,22.01
2022-12-25T23:53:14.710Z,21.99
2022-12-25T23:55:42.761Z,22.00
2022-12-25T23:58:10.501Z,22.00
